sensor_id;sensor_type;location;lat;lon;timestamp;P1;durP1;ratioP1;P2;durP2;ratioP2
57746;SDS011;43580;44.014;20.466;2022-12-29T00:00:00;267.75;;;136.70;;
57746;SDS011;43580;44.014;20.466;2022-12-29T00:02:26;284.88;;;138.10;;
57746;SDS011;43580;44.014;20.466;2022-12-29T00:04:52;255.55;;;131.82;;
57746;SDS011;43580;44.014;20.466;2022-12-29T00:07:19;296.65;;;151.57;;
57746;SDS011;43580;44.014;20.466;2022-12-29T00:09:47;259.45;;;138.40;;
57746;SDS011;43580;44.014;20.466;2022-12-29T00:12:13;261.77;;;144.70;;
57746;SDS011;43580;44.014;20.466;2022-12-29T00:14:39;279.50;;;154.80;;
57746;SDS011;43580;44.014;20.466;2022-12-29T00:17:24;202.85;;;113.70;;
57746;SDS011;43580;44.014;20.466;2022-12-29T00:19:50;196.45;;;106.13;;
57746;SDS011;43580;44.014;20.466;2022-12-29T00:22:34;217.10;;;118.10;;
57746;SDS011;43580;44.014;20.466;2022-12-29T00:25:19;245.40;;;129.25;;
57746;SDS011;43580;44.014;20.466;2022-12-29T00:28:04;260.50;;;132.38;;
57746;SDS011;43580;44.014;20.466;2022-12-29T00:30:48;275.27;;;137.82;;
57746;SDS011;43580;44.014;20.466;2022-12-29T00:33:33;279.40;;;138.15;;
57746;SDS011;43580;44.014;20.466;2022-12-29T00:36:25;254.20;;;128.93;;
57746;SDS011;43580;44.014;20.466;2022-12-29T00:39:12;245.68;;;125.75;;
57746;SDS011;43580;44.014;20.466;2022-12-29T00:42:05;237.38;;;122.07;;
57746;SDS011;43580;44.014;20.466;2022-12-29T00:44:49;256.58;;;131.55;;
57746;SDS011;43580;44.014;20.466;2022-12-29T00:47:15;261.98;;;130.57;;
57746;SDS011;43580;44.014;20.466;2022-12-29T00:49:49;253.63;;;129.35;;
57746;SDS011;43580;44.014;20.466;2022-12-29T00:52:15;253.93;;;124.32;;
57746;SDS011;43580;44.014;20.466;2022-12-29T00:54:41;240.85;;;124.25;;
57746;SDS011;43580;44.014;20.466;2022-12-29T00:57:09;221.60;;;114.20;;
57746;SDS011;43580;44.014;20.466;2022-12-29T00:59:37;210.00;;;107.72;;
57746;SDS011;43580;44.014;20.466;2022-12-29T01:02:04;239.00;;;118.10;;
57746;SDS011;43580;44.014;20.466;2022-12-29T01:04:35;233.65;;;111.40;;
57746;SDS011;43580;44.014;20.466;2022-12-29T01:07:01;229.95;;;115.65;;
57746;SDS011;43580;44.014;20.466;2022-12-29T01:09:27;242.77;;;116.10;;
57746;SDS011;43580;44.014;20.466;2022-12-29T01:12:12;246.23;;;119.33;;
57746;SDS011;43580;44.014;20.466;2022-12-29T01:14:38;251.70;;;120.32;;
57746;SDS011;43580;44.014;20.466;2022-12-29T01:17:12;216.88;;;112.00;;
57746;SDS011;43580;44.014;20.466;2022-12-29T01:19:38;222.10;;;112.10;;
57746;SDS011;43580;44.014;20.466;2022-12-29T01:22:04;253.75;;;128.95;;
57746;SDS011;43580;44.014;20.466;2022-12-29T01:24:30;218.25;;;112.72;;
57746;SDS011;43580;44.014;20.466;2022-12-29T01:26:57;223.35;;;115.93;;
57746;SDS011;43580;44.014;20.466;2022-12-29T01:29:23;227.60;;;116.95;;
57746;SDS011;43580;44.014;20.466;2022-12-29T01:31:49;241.43;;;119.45;;
57746;SDS011;43580;44.014;20.466;2022-12-29T01:34:15;227.93;;;116.85;;
57746;SDS011;43580;44.014;20.466;2022-12-29T01:36:41;239.00;;;121.00;;
57746;SDS011;43580;44.014;20.466;2022-12-29T01:39:10;242.02;;;127.20;;
57746;SDS011;43580;44.014;20.466;2022-12-29T01:41:36;232.65;;;121.13;;
57746;SDS011;43580;44.014;20.466;2022-12-29T01:44:02;247.98;;;125.78;;
57746;SDS011;43580;44.014;20.466;2022-12-29T01:46:32;231.75;;;120.93;;
57746;SDS011;43580;44.014;20.466;2022-12-29T01:51:39;229.65;;;114.22;;
57746;SDS011;43580;44.014;20.466;2022-12-29T01:54:08;260.63;;;126.20;;
57746;SDS011;43580;44.014;20.466;2022-12-29T01:56:37;275.85;;;131.55;;
57746;SDS011;43580;44.014;20.466;2022-12-29T01:59:05;291.38;;;137.02;;
57746;SDS011;43580;44.014;20.466;2022-12-29T02:01:32;277.05;;;128.52;;
57746;SDS011;43580;44.014;20.466;2022-12-29T02:03:58;259.83;;;121.70;;
57746;SDS011;43580;44.014;20.466;2022-12-29T02:06:28;249.80;;;114.35;;
57746;SDS011;43580;44.014;20.466;2022-12-29T02:08:55;250.70;;;116.63;;
57746;SDS011;43580;44.014;20.466;2022-12-29T02:11:23;271.35;;;125.68;;
57746;SDS011;43580;44.014;20.466;2022-12-29T02:13:51;232.15;;;110.03;;
57746;SDS011;43580;44.014;20.466;2022-12-29T02:34:30;207.88;;;106.10;;
57746;SDS011;43580;44.014;20.466;2022-12-29T02:42:29;179.98;;;85.43;;
57746;SDS011;43580;44.014;20.466;2022-12-29T02:45:01;225.70;;;109.88;;
57746;SDS011;43580;44.014;20.466;2022-12-29T02:53:06;225.32;;;107.13;;
57746;SDS011;43580;44.014;20.466;2022-12-29T02:55:33;218.52;;;107.68;;
57746;SDS011;43580;44.014;20.466;2022-12-29T03:00:36;231.65;;;111.90;;
57746;SDS011;43580;44.014;20.466;2022-12-29T03:03:17;236.38;;;117.82;;
57746;SDS011;43580;44.014;20.466;2022-12-29T03:05:58;241.70;;;123.57;;
57746;SDS011;43580;44.014;20.466;2022-12-29T03:08:44;223.23;;;113.13;;
57746;SDS011;43580;44.014;20.466;2022-12-29T03:11:12;156.82;;;80.97;;
57746;SDS011;43580;44.014;20.466;2022-12-29T03:14:02;200.02;;;107.82;;
57746;SDS011;43580;44.014;20.466;2022-12-29T03:16:52;196.75;;;104.57;;
57746;SDS011;43580;44.014;20.466;2022-12-29T03:19:21;196.50;;;99.95;;
57746;SDS011;43580;44.014;20.466;2022-12-29T03:24:37;183.88;;;91.72;;
57746;SDS011;43580;44.014;20.466;2022-12-29T03:27:09;190.48;;;95.18;;
57746;SDS011;43580;44.014;20.466;2022-12-29T03:29:38;214.40;;;100.97;;
57746;SDS011;43580;44.014;20.466;2022-12-29T03:32:05;223.18;;;99.07;;
57746;SDS011;43580;44.014;20.466;2022-12-29T03:34:32;200.65;;;95.07;;
57746;SDS011;43580;44.014;20.466;2022-12-29T03:37:03;211.23;;;91.55;;
57746;SDS011;43580;44.014;20.466;2022-12-29T03:39:31;190.00;;;91.18;;
57746;SDS011;43580;44.014;20.466;2022-12-29T03:41:58;171.43;;;83.50;;
57746;SDS011;43580;44.014;20.466;2022-12-29T03:44:32;164.93;;;80.70;;
57746;SDS011;43580;44.014;20.466;2022-12-29T03:46:58;199.25;;;94.05;;
57746;SDS011;43580;44.014;20.466;2022-12-29T03:49:24;188.15;;;87.18;;
57746;SDS011;43580;44.014;20.466;2022-12-29T03:51:50;183.13;;;88.47;;
57746;SDS011;43580;44.014;20.466;2022-12-29T03:54:16;202.63;;;96.75;;
57746;SDS011;43580;44.014;20.466;2022-12-29T03:56:42;193.45;;;94.90;;
57746;SDS011;43580;44.014;20.466;2022-12-29T03:59:08;186.45;;;88.78;;
57746;SDS011;43580;44.014;20.466;2022-12-29T04:01:34;170.60;;;81.95;;
57746;SDS011;43580;44.014;20.466;2022-12-29T04:04:00;186.32;;;94.90;;
57746;SDS011;43580;44.014;20.466;2022-12-29T04:06:26;190.45;;;94.82;;
57746;SDS011;43580;44.014;20.466;2022-12-29T04:08:54;162.48;;;79.10;;
57746;SDS011;43580;44.014;20.466;2022-12-29T04:11:21;171.70;;;87.10;;
57746;SDS011;43580;44.014;20.466;2022-12-29T04:13:47;161.23;;;82.15;;
57746;SDS011;43580;44.014;20.466;2022-12-29T04:16:13;164.82;;;83.72;;
57746;SDS011;43580;44.014;20.466;2022-12-29T04:18:41;177.70;;;93.45;;
57746;SDS011;43580;44.014;20.466;2022-12-29T04:21:07;189.73;;;99.65;;
57746;SDS011;43580;44.014;20.466;2022-12-29T04:23:35;173.05;;;91.63;;
57746;SDS011;43580;44.014;20.466;2022-12-29T04:26:01;175.40;;;92.47;;
57746;SDS011;43580;44.014;20.466;2022-12-29T04:28:28;157.30;;;81.15;;
57746;SDS011;43580;44.014;20.466;2022-12-29T04:30:54;152.52;;;74.60;;
57746;SDS011;43580;44.014;20.466;2022-12-29T04:33:20;148.20;;;77.78;;
57746;SDS011;43580;44.014;20.466;2022-12-29T04:35:47;167.98;;;83.10;;
57746;SDS011;43580;44.014;20.466;2022-12-29T04:38:13;167.93;;;85.63;;
57746;SDS011;43580;44.014;20.466;2022-12-29T04:40:39;181.50;;;90.30;;
57746;SDS011;43580;44.014;20.466;2022-12-29T04:43:06;177.60;;;91.57;;
57746;SDS011;43580;44.014;20.466;2022-12-29T04:45:32;180.75;;;88.68;;
57746;SDS011;43580;44.014;20.466;2022-12-29T04:47:58;181.35;;;87.95;;
57746;SDS011;43580;44.014;20.466;2022-12-29T04:50:24;158.10;;;81.72;;
57746;SDS011;43580;44.014;20.466;2022-12-29T04:52:50;179.35;;;90.13;;
57746;SDS011;43580;44.014;20.466;2022-12-29T04:55:16;173.50;;;85.70;;
57746;SDS011;43580;44.014;20.466;2022-12-29T04:57:42;190.48;;;88.07;;
57746;SDS011;43580;44.014;20.466;2022-12-29T05:00:08;218.80;;;103.35;;
57746;SDS011;43580;44.014;20.466;2022-12-29T05:02:35;368.75;;;155.07;;
57746;SDS011;43580;44.014;20.466;2022-12-29T05:05:02;370.30;;;169.32;;
57746;SDS011;43580;44.014;20.466;2022-12-29T05:07:28;291.38;;;132.55;;
57746;SDS011;43580;44.014;20.466;2022-12-29T05:09:54;231.55;;;106.97;;
57746;SDS011;43580;44.014;20.466;2022-12-29T05:12:20;164.93;;;80.40;;
57746;SDS011;43580;44.014;20.466;2022-12-29T05:14:46;165.75;;;75.28;;
57746;SDS011;43580;44.014;20.466;2022-12-29T05:17:12;158.55;;;75.88;;
57746;SDS011;43580;44.014;20.466;2022-12-29T05:19:38;156.02;;;75.75;;
57746;SDS011;43580;44.014;20.466;2022-12-29T05:22:04;161.95;;;80.65;;
57746;SDS011;43580;44.014;20.466;2022-12-29T05:24:30;168.65;;;84.72;;
57746;SDS011;43580;44.014;20.466;2022-12-29T05:26:57;177.93;;;84.28;;
57746;SDS011;43580;44.014;20.466;2022-12-29T05:29:23;175.98;;;88.78;;
57746;SDS011;43580;44.014;20.466;2022-12-29T05:31:49;173.95;;;84.97;;
57746;SDS011;43580;44.014;20.466;2022-12-29T05:34:15;170.43;;;86.10;;
57746;SDS011;43580;44.014;20.466;2022-12-29T05:36:41;171.75;;;90.00;;
57746;SDS011;43580;44.014;20.466;2022-12-29T05:39:07;179.82;;;91.65;;
57746;SDS011;43580;44.014;20.466;2022-12-29T05:41:35;193.98;;;95.40;;
57746;SDS011;43580;44.014;20.466;2022-12-29T05:44:02;194.43;;;95.72;;
57746;SDS011;43580;44.014;20.466;2022-12-29T05:46:28;199.15;;;100.05;;
57746;SDS011;43580;44.014;20.466;2022-12-29T05:48:54;202.10;;;102.43;;
57746;SDS011;43580;44.014;20.466;2022-12-29T05:51:20;198.88;;;101.63;;
57746;SDS011;43580;44.014;20.466;2022-12-29T05:53:53;196.10;;;102.10;;
57746;SDS011;43580;44.014;20.466;2022-12-29T05:56:20;219.82;;;107.22;;
57746;SDS011;43580;44.014;20.466;2022-12-29T05:58:48;247.75;;;126.57;;
57746;SDS011;43580;44.014;20.466;2022-12-29T06:01:14;318.55;;;172.15;;
57746;SDS011;43580;44.014;20.466;2022-12-29T06:03:40;395.45;;;215.20;;
57746;SDS011;43580;44.014;20.466;2022-12-29T06:06:06;263.13;;;135.13;;
57746;SDS011;43580;44.014;20.466;2022-12-29T06:08:33;176.75;;;86.53;;
57746;SDS011;43580;44.014;20.466;2022-12-29T06:10:59;196.10;;;105.88;;
57746;SDS011;43580;44.014;20.466;2022-12-29T06:13:25;197.13;;;107.18;;
57746;SDS011;43580;44.014;20.466;2022-12-29T06:15:52;188.18;;;101.43;;
57746;SDS011;43580;44.014;20.466;2022-12-29T06:18:18;176.15;;;86.65;;
57746;SDS011;43580;44.014;20.466;2022-12-29T06:20:47;187.70;;;87.75;;
57746;SDS011;43580;44.014;20.466;2022-12-29T06:23:13;217.05;;;110.18;;
57746;SDS011;43580;44.014;20.466;2022-12-29T06:25:39;222.60;;;101.03;;
57746;SDS011;43580;44.014;20.466;2022-12-29T06:28:05;213.48;;;101.60;;
57746;SDS011;43580;44.014;20.466;2022-12-29T06:30:32;257.88;;;112.95;;
57746;SDS011;43580;44.014;20.466;2022-12-29T06:32:58;259.40;;;112.95;;
57746;SDS011;43580;44.014;20.466;2022-12-29T06:35:25;307.42;;;139.32;;
57746;SDS011;43580;44.014;20.466;2022-12-29T06:37:51;338.73;;;153.15;;
57746;SDS011;43580;44.014;20.466;2022-12-29T06:40:17;263.20;;;123.63;;
57746;SDS011;43580;44.014;20.466;2022-12-29T06:42:43;218.35;;;104.78;;
57746;SDS011;43580;44.014;20.466;2022-12-29T06:45:11;202.60;;;105.53;;
57746;SDS011;43580;44.014;20.466;2022-12-29T06:47:37;207.15;;;102.30;;
57746;SDS011;43580;44.014;20.466;2022-12-29T06:50:04;202.38;;;102.80;;
57746;SDS011;43580;44.014;20.466;2022-12-29T06:52:30;209.55;;;107.15;;
57746;SDS011;43580;44.014;20.466;2022-12-29T06:54:56;194.88;;;95.03;;
57746;SDS011;43580;44.014;20.466;2022-12-29T06:57:22;184.25;;;94.43;;
57746;SDS011;43580;44.014;20.466;2022-12-29T06:59:48;225.50;;;104.28;;
57746;SDS011;43580;44.014;20.466;2022-12-29T07:02:14;246.68;;;116.93;;
57746;SDS011;43580;44.014;20.466;2022-12-29T07:04:46;253.52;;;123.72;;
57746;SDS011;43580;44.014;20.466;2022-12-29T07:07:12;249.15;;;122.93;;
57746;SDS011;43580;44.014;20.466;2022-12-29T07:09:38;171.65;;;86.65;;
57746;SDS011;43580;44.014;20.466;2022-12-29T07:12:06;189.43;;;96.60;;
57746;SDS011;43580;44.014;20.466;2022-12-29T07:14:32;232.75;;;124.70;;
57746;SDS011;43580;44.014;20.466;2022-12-29T07:16:59;229.48;;;114.18;;
57746;SDS011;43580;44.014;20.466;2022-12-29T07:19:25;219.18;;;113.45;;
57746;SDS011;43580;44.014;20.466;2022-12-29T07:21:54;225.55;;;117.55;;
57746;SDS011;43580;44.014;20.466;2022-12-29T07:24:22;224.60;;;122.15;;
57746;SDS011;43580;44.014;20.466;2022-12-29T07:26:50;235.40;;;124.32;;
57746;SDS011;43580;44.014;20.466;2022-12-29T07:29:17;225.07;;;126.70;;
57746;SDS011;43580;44.014;20.466;2022-12-29T07:31:43;198.95;;;113.43;;
57746;SDS011;43580;44.014;20.466;2022-12-29T07:34:09;205.05;;;117.07;;
57746;SDS011;43580;44.014;20.466;2022-12-29T07:36:35;180.23;;;100.53;;
57746;SDS011;43580;44.014;20.466;2022-12-29T07:39:02;229.77;;;122.07;;
57746;SDS011;43580;44.014;20.466;2022-12-29T07:41:28;240.13;;;124.75;;
57746;SDS011;43580;44.014;20.466;2022-12-29T07:43:54;321.05;;;143.45;;
57746;SDS011;43580;44.014;20.466;2022-12-29T07:46:20;342.15;;;161.73;;
57746;SDS011;43580;44.014;20.466;2022-12-29T07:48:46;354.45;;;178.43;;
57746;SDS011;43580;44.014;20.466;2022-12-29T07:51:12;328.08;;;168.38;;
57746;SDS011;43580;44.014;20.466;2022-12-29T07:53:38;306.27;;;163.02;;
57746;SDS011;43580;44.014;20.466;2022-12-29T07:56:04;246.68;;;133.70;;
57746;SDS011;43580;44.014;20.466;2022-12-29T07:58:31;205.55;;;113.88;;
57746;SDS011;43580;44.014;20.466;2022-12-29T08:00:58;265.42;;;145.15;;
57746;SDS011;43580;44.014;20.466;2022-12-29T08:03:24;298.23;;;180.80;;
57746;SDS011;43580;44.014;20.466;2022-12-29T08:05:52;175.07;;;95.55;;
57746;SDS011;43580;44.014;20.466;2022-12-29T08:08:19;240.57;;;144.10;;
57746;SDS011;43580;44.014;20.466;2022-12-29T08:10:45;195.63;;;111.20;;
57746;SDS011;43580;44.014;20.466;2022-12-29T08:13:11;187.43;;;102.25;;
57746;SDS011;43580;44.014;20.466;2022-12-29T08:15:38;202.63;;;111.03;;
57746;SDS011;43580;44.014;20.466;2022-12-29T08:18:04;198.57;;;111.05;;
57746;SDS011;43580;44.014;20.466;2022-12-29T08:20:31;232.00;;;123.47;;
57746;SDS011;43580;44.014;20.466;2022-12-29T08:22:57;258.92;;;135.10;;
57746;SDS011;43580;44.014;20.466;2022-12-29T08:25:23;260.95;;;138.30;;
57746;SDS011;43580;44.014;20.466;2022-12-29T08:27:49;230.57;;;129.90;;
57746;SDS011;43580;44.014;20.466;2022-12-29T08:30:15;248.23;;;138.10;;
57746;SDS011;43580;44.014;20.466;2022-12-29T08:32:41;230.20;;;129.48;;
57746;SDS011;43580;44.014;20.466;2022-12-29T08:35:08;213.48;;;121.35;;
57746;SDS011;43580;44.014;20.466;2022-12-29T08:37:37;208.90;;;120.63;;
57746;SDS011;43580;44.014;20.466;2022-12-29T08:40:03;217.73;;;122.53;;
57746;SDS011;43580;44.014;20.466;2022-12-29T08:42:31;183.63;;;108.75;;
57746;SDS011;43580;44.014;20.466;2022-12-29T08:44:57;247.63;;;143.07;;
57746;SDS011;43580;44.014;20.466;2022-12-29T08:47:24;245.20;;;143.07;;
57746;SDS011;43580;44.014;20.466;2022-12-29T08:49:52;228.98;;;136.88;;
57746;SDS011;43580;44.014;20.466;2022-12-29T08:52:18;218.45;;;127.53;;
57746;SDS011;43580;44.014;20.466;2022-12-29T08:54:45;166.10;;;97.63;;
57746;SDS011;43580;44.014;20.466;2022-12-29T08:57:11;195.07;;;112.85;;
57746;SDS011;43580;44.014;20.466;2022-12-29T08:59:37;187.65;;;110.05;;
57746;SDS011;43580;44.014;20.466;2022-12-29T09:02:03;214.23;;;123.20;;
57746;SDS011;43580;44.014;20.466;2022-12-29T09:04:29;205.80;;;125.57;;
57746;SDS011;43580;44.014;20.466;2022-12-29T09:06:55;109.68;;;68.60;;
57746;SDS011;43580;44.014;20.466;2022-12-29T09:09:21;183.15;;;113.50;;
57746;SDS011;43580;44.014;20.466;2022-12-29T09:11:57;201.05;;;123.28;;
57746;SDS011;43580;44.014;20.466;2022-12-29T09:14:23;186.85;;;111.10;;
57746;SDS011;43580;44.014;20.466;2022-12-29T09:16:53;187.80;;;111.35;;
57746;SDS011;43580;44.014;20.466;2022-12-29T09:19:38;223.23;;;137.85;;
57746;SDS011;43580;44.014;20.466;2022-12-29T09:22:04;197.73;;;119.22;;
57746;SDS011;43580;44.014;20.466;2022-12-29T09:24:30;180.10;;;105.80;;
57746;SDS011;43580;44.014;20.466;2022-12-29T09:26:56;135.63;;;82.10;;
57746;SDS011;43580;44.014;20.466;2022-12-29T09:29:22;136.75;;;82.53;;
57746;SDS011;43580;44.014;20.466;2022-12-29T09:31:49;110.80;;;67.90;;
57746;SDS011;43580;44.014;20.466;2022-12-29T09:34:15;117.30;;;70.55;;
57746;SDS011;43580;44.014;20.466;2022-12-29T09:36:41;102.75;;;64.70;;
57746;SDS011;43580;44.014;20.466;2022-12-29T09:39:09;91.07;;;52.55;;
57746;SDS011;43580;44.014;20.466;2022-12-29T09:41:39;85.57;;;53.22;;
57746;SDS011;43580;44.014;20.466;2022-12-29T09:44:17;101.20;;;62.92;;
57746;SDS011;43580;44.014;20.466;2022-12-29T09:46:47;90.72;;;56.22;;
57746;SDS011;43580;44.014;20.466;2022-12-29T09:49:30;88.30;;;53.58;;
57746;SDS011;43580;44.014;20.466;2022-12-29T09:52:05;77.30;;;45.20;;
57746;SDS011;43580;44.014;20.466;2022-12-29T09:54:38;77.07;;;48.28;;
57746;SDS011;43580;44.014;20.466;2022-12-29T09:57:10;71.05;;;45.45;;
57746;SDS011;43580;44.014;20.466;2022-12-29T09:59:40;71.65;;;43.58;;
57746;SDS011;43580;44.014;20.466;2022-12-29T10:04:54;61.63;;;38.42;;
57746;SDS011;43580;44.014;20.466;2022-12-29T10:15:52;61.15;;;37.50;;
57746;SDS011;43580;44.014;20.466;2022-12-29T10:23:32;81.60;;;40.88;;
57746;SDS011;43580;44.014;20.466;2022-12-29T10:26:01;56.67;;;32.75;;
57746;SDS011;43580;44.014;20.466;2022-12-29T10:28:32;49.30;;;27.70;;
57746;SDS011;43580;44.014;20.466;2022-12-29T10:30:59;39.25;;;23.13;;
57746;SDS011;43580;44.014;20.466;2022-12-29T10:33:33;27.58;;;16.15;;
57746;SDS011;43580;44.014;20.466;2022-12-29T10:36:02;29.10;;;17.38;;
57746;SDS011;43580;44.014;20.466;2022-12-29T10:39:21;36.20;;;21.45;;
57746;SDS011;43580;44.014;20.466;2022-12-29T10:41:23;28.75;;;15.25;;
57746;SDS011;43580;44.014;20.466;2022-12-29T10:43:52;24.25;;;13.75;;
57746;SDS011;43580;44.014;20.466;2022-12-29T10:46:19;30.05;;;18.05;;
57746;SDS011;43580;44.014;20.466;2022-12-29T10:48:46;24.58;;;15.07;;
57746;SDS011;43580;44.014;20.466;2022-12-29T10:51:32;33.97;;;21.90;;
57746;SDS011;43580;44.014;20.466;2022-12-29T10:54:08;31.38;;;17.45;;
57746;SDS011;43580;44.014;20.466;2022-12-29T10:56:40;18.45;;;11.35;;
57746;SDS011;43580;44.014;20.466;2022-12-29T10:59:22;17.80;;;11.57;;
57746;SDS011;43580;44.014;20.466;2022-12-29T11:07:21;21.00;;;13.30;;
57746;SDS011;43580;44.014;20.466;2022-12-29T11:09:47;40.38;;;23.73;;
57746;SDS011;43580;44.014;20.466;2022-12-29T11:12:21;41.13;;;25.58;;
57746;SDS011;43580;44.014;20.466;2022-12-29T11:14:52;34.58;;;20.73;;
57746;SDS011;43580;44.014;20.466;2022-12-29T11:17:26;29.25;;;15.45;;
57746;SDS011;43580;44.014;20.466;2022-12-29T11:19:52;29.00;;;16.50;;
57746;SDS011;43580;44.014;20.466;2022-12-29T11:22:26;41.55;;;24.40;;
57746;SDS011;43580;44.014;20.466;2022-12-29T11:24:53;37.78;;;25.25;;
57746;SDS011;43580;44.014;20.466;2022-12-29T11:27:21;39.53;;;24.98;;
57746;SDS011;43580;44.014;20.466;2022-12-29T11:29:48;42.20;;;26.02;;
57746;SDS011;43580;44.014;20.466;2022-12-29T11:32:25;41.38;;;26.92;;
57746;SDS011;43580;44.014;20.466;2022-12-29T11:34:52;43.58;;;27.20;;
57746;SDS011;43580;44.014;20.466;2022-12-29T11:37:31;29.15;;;18.95;;
57746;SDS011;43580;44.014;20.466;2022-12-29T11:40:03;26.17;;;15.93;;
57746;SDS011;43580;44.014;20.466;2022-12-29T11:42:50;21.27;;;13.90;;
57746;SDS011;43580;44.014;20.466;2022-12-29T11:48:28;24.42;;;13.27;;
57746;SDS011;43580;44.014;20.466;2022-12-29T11:50:37;18.48;;;11.77;;
57746;SDS011;43580;44.014;20.466;2022-12-29T11:53:13;21.27;;;11.82;;
57746;SDS011;43580;44.014;20.466;2022-12-29T11:55:48;20.20;;;11.20;;
57746;SDS011;43580;44.014;20.466;2022-12-29T11:58:15;20.25;;;11.70;;
57746;SDS011;43580;44.014;20.466;2022-12-29T12:00:41;16.25;;;9.68;;
57746;SDS011;43580;44.014;20.466;2022-12-29T12:03:17;19.45;;;12.30;;
57746;SDS011;43580;44.014;20.466;2022-12-29T12:05:49;23.75;;;14.45;;
57746;SDS011;43580;44.014;20.466;2022-12-29T12:10:44;25.52;;;16.33;;
57746;SDS011;43580;44.014;20.466;2022-12-29T12:13:20;43.42;;;26.05;;
57746;SDS011;43580;44.014;20.466;2022-12-29T12:15:59;24.92;;;16.10;;
57746;SDS011;43580;44.014;20.466;2022-12-29T12:18:32;25.42;;;16.38;;
57746;SDS011;43580;44.014;20.466;2022-12-29T12:21:04;30.98;;;18.55;;
57746;SDS011;43580;44.014;20.466;2022-12-29T12:23:35;18.40;;;9.88;;
57746;SDS011;43580;44.014;20.466;2022-12-29T12:26:19;32.15;;;17.83;;
57746;SDS011;43580;44.014;20.466;2022-12-29T12:33:52;34.00;;;19.48;;
57746;SDS011;43580;44.014;20.466;2022-12-29T12:43:54;89.78;;;52.95;;
57746;SDS011;43580;44.014;20.466;2022-12-29T12:53:56;75.75;;;42.78;;
57746;SDS011;43580;44.014;20.466;2022-12-29T12:58:59;102.13;;;59.47;;
57746;SDS011;43580;44.014;20.466;2022-12-29T13:06:40;122.95;;;78.22;;
57746;SDS011;43580;44.014;20.466;2022-12-29T13:11:47;36.40;;;24.77;;
57746;SDS011;43580;44.014;20.466;2022-12-29T13:14:18;33.03;;;21.50;;
57746;SDS011;43580;44.014;20.466;2022-12-29T13:16:51;32.22;;;19.50;;
57746;SDS011;43580;44.014;20.466;2022-12-29T13:22:07;28.75;;;20.23;;
57746;SDS011;43580;44.014;20.466;2022-12-29T13:27:32;34.33;;;21.90;;
57746;SDS011;43580;44.014;20.466;2022-12-29T13:30:04;32.20;;;23.98;;
57746;SDS011;43580;44.014;20.466;2022-12-29T13:37:30;32.28;;;22.58;;
57746;SDS011;43580;44.014;20.466;2022-12-29T13:39:57;45.53;;;31.90;;
57746;SDS011;43580;44.014;20.466;2022-12-29T13:42:25;37.25;;;24.15;;
57746;SDS011;43580;44.014;20.466;2022-12-29T13:49:50;55.25;;;39.67;;
57746;SDS011;43580;44.014;20.466;2022-12-29T13:54:45;37.80;;;23.75;;
57746;SDS011;43580;44.014;20.466;2022-12-29T13:57:14;43.28;;;27.48;;
57746;SDS011;43580;44.014;20.466;2022-12-29T13:59:44;43.42;;;28.45;;
57746;SDS011;43580;44.014;20.466;2022-12-29T14:07:23;49.75;;;35.55;;
57746;SDS011;43580;44.014;20.466;2022-12-29T14:09:52;49.80;;;32.63;;
57746;SDS011;43580;44.014;20.466;2022-12-29T14:14:45;38.78;;;27.48;;
57746;SDS011;43580;44.014;20.466;2022-12-29T14:17:11;47.92;;;30.67;;
57746;SDS011;43580;44.014;20.466;2022-12-29T14:19:41;46.95;;;31.40;;
57746;SDS011;43580;44.014;20.466;2022-12-29T14:22:08;44.78;;;31.20;;
57746;SDS011;43580;44.014;20.466;2022-12-29T14:34:47;40.63;;;26.02;;
57746;SDS011;43580;44.014;20.466;2022-12-29T14:37:29;40.65;;;27.67;;
57746;SDS011;43580;44.014;20.466;2022-12-29T14:42:27;35.65;;;26.73;;
57746;SDS011;43580;44.014;20.466;2022-12-29T14:45:00;37.47;;;26.00;;
57746;SDS011;43580;44.014;20.466;2022-12-29T14:50:06;38.33;;;26.45;;
57746;SDS011;43580;44.014;20.466;2022-12-29T14:52:41;37.33;;;26.40;;
57746;SDS011;43580;44.014;20.466;2022-12-29T14:57:52;45.42;;;29.02;;
57746;SDS011;43580;44.014;20.466;2022-12-29T15:00:25;42.25;;;26.20;;
57746;SDS011;43580;44.014;20.466;2022-12-29T15:03:12;45.40;;;30.08;;
57746;SDS011;43580;44.014;20.466;2022-12-29T15:05:41;47.53;;;32.00;;
57746;SDS011;43580;44.014;20.466;2022-12-29T15:08:09;56.42;;;37.95;;
57746;SDS011;43580;44.014;20.466;2022-12-29T15:10:41;63.33;;;40.50;;
57746;SDS011;43580;44.014;20.466;2022-12-29T15:13:16;110.50;;;64.47;;
57746;SDS011;43580;44.014;20.466;2022-12-29T15:15:42;115.43;;;71.47;;
57746;SDS011;43580;44.014;20.466;2022-12-29T15:20:57;88.90;;;60.00;;
57746;SDS011;43580;44.014;20.466;2022-12-29T15:23:23;99.05;;;67.43;;
57746;SDS011;43580;44.014;20.466;2022-12-29T15:25:57;104.38;;;73.70;;
57746;SDS011;43580;44.014;20.466;2022-12-29T15:28:27;99.05;;;66.18;;
57746;SDS011;43580;44.014;20.466;2022-12-29T15:31:01;112.32;;;74.35;;
57746;SDS011;43580;44.014;20.466;2022-12-29T15:33:30;116.57;;;75.60;;
57746;SDS011;43580;44.014;20.466;2022-12-29T15:35:57;106.40;;;67.35;;
57746;SDS011;43580;44.014;20.466;2022-12-29T15:38:28;121.20;;;80.47;;
57746;SDS011;43580;44.014;20.466;2022-12-29T15:40:55;130.48;;;82.45;;
57746;SDS011;43580;44.014;20.466;2022-12-29T15:43:44;139.80;;;88.47;;
57746;SDS011;43580;44.014;20.466;2022-12-29T15:46:14;120.75;;;75.95;;
57746;SDS011;43580;44.014;20.466;2022-12-29T15:48:40;118.13;;;75.70;;
57746;SDS011;43580;44.014;20.466;2022-12-29T15:51:18;137.75;;;89.63;;
57746;SDS011;43580;44.014;20.466;2022-12-29T15:53:48;120.18;;;78.75;;
57746;SDS011;43580;44.014;20.466;2022-12-29T15:56:16;121.28;;;78.65;;
57746;SDS011;43580;44.014;20.466;2022-12-29T15:58:43;123.78;;;80.22;;
57746;SDS011;43580;44.014;20.466;2022-12-29T16:01:20;203.25;;;116.18;;
57746;SDS011;43580;44.014;20.466;2022-12-29T16:03:49;197.18;;;114.45;;
57746;SDS011;43580;44.014;20.466;2022-12-29T16:06:38;142.73;;;89.32;;
57746;SDS011;43580;44.014;20.466;2022-12-29T16:09:03;82.03;;;51.33;;
57746;SDS011;43580;44.014;20.466;2022-12-29T16:13:56;80.20;;;52.92;;
57746;SDS011;43580;44.014;20.466;2022-12-29T16:16:25;72.35;;;48.92;;
57746;SDS011;43580;44.014;20.466;2022-12-29T16:18:53;95.75;;;60.45;;
57746;SDS011;43580;44.014;20.466;2022-12-29T16:21:20;114.60;;;74.90;;
57746;SDS011;43580;44.014;20.466;2022-12-29T16:23:48;141.63;;;95.28;;
57746;SDS011;43580;44.014;20.466;2022-12-29T16:26:19;107.60;;;73.10;;
57746;SDS011;43580;44.014;20.466;2022-12-29T16:28:50;94.63;;;65.93;;